Milford, MA (01757)

12:14 AM EDT die 05o May, anno 2015 (GMT -0400)
Congress St | | Change Station
CLOSE
Current Station
Personal Weather Stations
Location: Milford, MA
Elevation: 394 ft
Nearby Weather Stations

Elev 394 ft 42.15 °N, 71.53 °W | Updated 4 seconds ago

Serena
Serena
67.1 °F
Feels Like 67.1 °F
N
6.9
Ventus Variabilis Ventus from Magis Auster quam Zephyrus
Gusts 12.7 mph

Hodie
High -- | Low -- °F
--% Chance of Precip.
Yesterday
High -- | Low -- °F
Precip. -- in
5:36 AM 7:49 PM
Full, 99% visible
Pressio 30.12 in
Visibilitas 10.0 milia passuum
Clouds Serena
Frigus in quo Ros apparet 48 °F
Umor 50%
Rainfall 0.00 in
Snow Depth Not available.
UV 0.0 out of 12
Pollen 11.80 out of 12
Air Quality Not available.
Flu Activity Widespread
METAR KSFZ 050355Z 23007G18KT 150V300 10SM CLR 18/03 A3012 RMK AO1

More Conditions Fewer Conditions

Pressio 30.12 in
Visibilitas 10.0 milia passuum
Clouds Serena
Frigus in quo Ros apparet 48 °F
Umor 50%
Rainfall 0.00 in
Snow Depth Not available.
UV 0.0 out of 12
Pollen 11.80 out of 12
Air Quality Not available.
Flu Activity Widespread
METAR KSFZ 050355Z 23007G18KT 150V300 10SM CLR 18/03 A3012 RMK AO1

More Conditions Fewer Conditions

Nepal has a long way to go to dig out and rebuild from a devastating earthquake. We have teamed up with several charities and organizations to make contributing to the relief effort as easy as possible.
How you can help: Portlight Strategies | Red Cross

10-Day Weather Forecast

Almanac

Astronomy

May. 05, 2015 Rise Set
Actual Time
Civil Twilight
Nautical Twilight
Astronomical Twilight
Moon
Length Of Visible Light
Length of Day
Tomorrow will be .
, % of the Moon is Illuminated

Today's Extremes

State Highs State Lows

Community

WunderPhotos

Upload Photos

1,818,814 photos uploaded!

WunderBlogs® & News

Nearby

Air Quality

  Air Quality AQ Index Pollutant
Not available.

Snow Depth

Station Depth Elevation

Earthquake Activity

City Distance Mag. Time & Date
Minimum magnitude displayed is 2.5.

Coastal Water Temperatures

Locus Calor

Stations

Nearby Weather Stations

Station Location Temp Frigus Venti Frigus in quo Ros apparet Umor Ventus Precip. Elev Renovata Type